Weather observations for the past three days for
La Veta Mountain, La Veta Pass
Metric (Imperial)
Date Time (mdt) Wind (kph) Vis. (km) Weather Sky Cond. Temperature (ºC) Relative Humidity Wind Chill (°C) Heat Index (°C) Pressure Precipitation (cm)
Air Dwpt 6 hour altimeter (cm) sea level (mb) 1 hr 3 hr 6 hr
Max. Min.
03 18:15 SW 15 G 28 16.09 Fair CLR 0 0 0% 77.55 0.0
03 17:55 W 17 G 31 16.09 Fair CLR 0 0 0% 77.55 0.0
03 17:35 W 20 G 35 16.09 Fair CLR 0 0 0% 77.52 0.0
03 17:15 SW 20 G 31 16.09 Partly Cloudy SCT070 0 0 0% 77.52 0.0
03 16:55 SW 19 G 31 16.09 Fair CLR 20 -38 1% 77.52 0.0
03 16:35 W 22 G 37 16.09 Partly Cloudy SCT075 0 0 0% 77.52 0.0
03 16:15 W 20 G 31 16.09 Partly Cloudy SCT075 0 0 0% 77.55 0.0
03 15:35 SW 24 G 39 16.09 Fair CLR 20 -1 24% 77.55 0.0
03 15:15 W 22 G 35 16.09 Fair CLR 21 -1 23% 77.57 0.0
03 14:55 SW 26 G 37 16.09 Fair CLR 21 0 25% 77.57 0.0
03 14:35 SW 26 G 35 16.09 Partly Cloudy SCT075 21 0 25% 77.6 0.0
03 14:15 SW 24 G 41 16.09 Fair CLR 21 0 25% 77.6 0.0
03 13:55 SW 24 G 41 16.09 Fair CLR 20 1 28% 77.6 0.0
03 13:35 W 20 G 37 16.09 Fair CLR 19 2 32% 77.6 0.0
03 13:15 W 26 G 37 16.09 Fair CLR 19 3 35% 77.62 0.0
03 12:55 W 26 G 44 16.09 Fair CLR 18 3 37% 77.62 0.0
03 12:35 W 26 G 39 16.09 Fair CLR 18 3 37% 77.65 0.0
03 12:15 SW 17 G 33 16.09 Partly Cloudy SCT049 18 3 37% 77.67 0.0
03 11:55 SW 26 G 35 16.09 Fair CLR 17 3 39% 77.67 0.0
03 11:35 W 19 G 41 16.09 Fair CLR 17 3 39% 77.67 0.0
03 11:15 W 17 G 26 16.09 Fair CLR 17 3 39% 77.67 0.0
03 10:55 W 20 G 28 16.09 Fair CLR 16 3 42% 77.67 0.0
03 10:35 W 20 16.09 Fair CLR 16 3 42% 77.65 0.0
03 10:15 W 19 G 31 16.09 Fair CLR 16 3 42% 77.62 0.0
03 09:55 SW 15 G 28 16.09 Fair CLR 15 3 45% 77.62 0.0
03 09:35 W 9 G 26 16.09 Fair CLR 14 4 51% 77.65 0.0
03 09:15 W 19 G 31 16.09 Fair CLR 13 4 55% 77.6 0.0
03 08:55 W 19 G 35 16.09 Fair CLR 13 4 55% 77.6 0.0
03 08:35 W 19 G 37 16.09 Fair CLR 11 4 62% 77.52 0.0
03 08:15 W 28 G 35 16.09 Fair CLR 10 4 67% 7 77.52 0.0
03 07:55 W 17 G 26 16.09 Fair CLR 10 3 62% 8 77.6 0.0
03 07:35 W 20 16.09 Fair CLR 10 3 62% 8 77.57 0.0
03 07:15 W 20 16.09 Fair CLR 10 3 62% 8 77.55 0.0
03 06:55 SW 22 G 28 16.09 Fair CLR 10 3 62% 7 77.55 0.0
03 06:35 W 17 16.09 Fair CLR 8 3 71% 6 77.57 0.0
03 06:15 W 13 16.09 Fair CLR 10 3 62% 8 77.55 0.0
03 05:55 W 11 16.09 Fair CLR 9 3 66% 8 77.55 0.0
03 05:35 W 13 16.09 Fair CLR 10 2 58% 8 77.52 0.0
03 05:15 W 11 16.09 Fair CLR 10 2 58% 9 77.52 0.0
03 04:55 W 13 16.09 Fair CLR 10 2 58% 8 77.52 0.0
03 04:35 W 13 16.09 Fair CLR 11 2 54% 77.52 0.0
03 04:15 W 13 16.09 Fair CLR 10 2 58% 8 77.52 0.0
03 03:55 W 15 G 26 16.09 Fair CLR 10 2 58% 8 77.5 0.0
03 03:35 W 13 G 26 16.09 Fair CLR 11 2 54% 77.52 0.0
03 03:15 W 11 16.09 Fair CLR 11 2 54% 77.52 0.0
03 02:55 W 15 G 28 16.09 Fair CLR 11 2 54% 77.52 0.0
03 02:35 W 17 16.09 Fair CLR 10 1 54% 8 77.52 0.0
03 02:15 W 17 G 28 16.09 Fair CLR 10 1 54% 8 77.52 0.0
03 01:55 W 13 G 26 16.09 Fair CLR 11 1 50% 77.52 0.0
03 01:35 W 17 G 30 16.09 Fair CLR 11 1 50% 77.55 0.0
03 01:15 W 17 G 31 16.09 Fair CLR 11 0 47% 77.55 0.0
03 00:35 W 13 G 33 16.09 Fair CLR 11 0 47% 77.55 0.0
03 00:20 W 17 16.09 Fair CLR 11 0 47% 77.57 0.0
02 23:55 W 13 G 31 16.09 Fair CLR 12 0 44% 77.57 0.0
02 23:30 W 17 G 31 16.09 Fair CLR 13 0 41% 77.6 0.0
02 23:15 W 17 G 28 16.09 Fair CLR 12 0 44% 77.6 0.0
02 22:55 W 22 G 33 16.09 Fair CLR 13 0 41% 77.6 0.0
02 22:35 W 19 G 30 16.09 Fair CLR 13 0 41% 77.62 0.0
02 22:15 W 20 G 31 16.09 Fair CLR 14 0 39% 77.6 0.0
02 21:55 W 17 16.09 Fair CLR 13 -1 38% 77.62 0.0
02 21:35 W 26 G 37 16.09 Fair CLR 15 -1 34% 77.6 0.0
02 21:15 W 20 G 31 16.09 Fair CLR 15 -1 34% 77.6 0.0
02 20:55 W 22 G 31 16.09 Fair CLR 15 -1 34% 77.6 0.0
02 20:35 W 22 G 35 16.09 Fair CLR 15 -2 31% 77.57 0.0
02 20:15 W 20 G 30 16.09 Fair CLR 15 -1 34% 77.57 0.0
02 19:55 W 20 16.09 Fair CLR 16 -2 29% 77.55 0.0
02 19:35 W 17 G 30 16.09 Fair CLR 16 -3 27% 77.55 0.0
02 19:15 W 15 G 30 16.09 Fair CLR 17 -2 27% 77.55 0.0
02 18:55 W 22 G 33 16.09 Fair CLR 0 0 0% 77.55 0.0
02 18:35 SW 20 G 30 16.09 Fair CLR 0 0 0% 77.55 0.0
02 18:15 W 19 G 28 16.09 Fair CLR 0 0 0% 77.55 0.0
02 17:55 SW 19 G 35 16.09 Fair CLR 0 0 0% 77.55 0.0
02 17:35 W 20 G 37 16.09 Fair CLR 0 0 0% 77.55 0.0
02 17:15 W 15 G 28 16.09 Fair CLR 0 0 0% 77.55 0.0
02 16:55 W 20 G 33 16.09 Fair CLR 0 0 0% 77.57 0.0
02 16:35 W 17 G 31 16.09 Fair CLR 0 0 0% 77.57 0.0
02 16:15 W 13 G 28 16.09 Partly Cloudy SCT075 0 0 0% 77.6 0.0
02 15:55 W 19 G 30 16.09 Partly Cloudy SCT075 21 -37 1% 77.6 0.0
02 15:35 W 24 G 31 16.09 Fair CLR 21 -36 1% 77.6 0.0
02 15:15 SW 15 G 28 16.09 Fair CLR 21 -36 1% 77.62 0.0
02 14:55 SW 19 G 33 16.09 Fair CLR 21 -1 23% 77.62 0.0
02 14:35 W 20 G 37 16.09 Fair CLR 20 0 26% 77.65 0.0
02 14:15 SW 22 G 35 16.09 Fair CLR 20 0 26% 77.67 0.0
02 13:55 SW 20 G 30 16.09 Partly Cloudy SCT060 SCT070 19 1 30% 77.67 0.0
02 13:35 SW 22 G 37 16.09 Partly Cloudy SCT055 SCT065 19 2 32% 77.7 0.0
02 13:15 W 22 G 35 16.09 Partly Cloudy SCT055 18 2 34% 77.72 0.0
02 12:55 W 20 G 35 16.09 Fair CLR 17 2 37% 77.72 0.0
02 12:35 W 22 G 41 16.09 Fair CLR 17 1 34% 77.75 0.0
02 12:15 W 19 G 35 16.09 Fair CLR 17 1 34% 77.77 0.0
02 11:55 W 20 G 37 16.09 Fair CLR 17 2 37% 77.77 0.0
02 11:35 W 22 G 37 16.09 Fair CLR 16 1 36% 77.77 0.0
02 11:15 W 19 G 33 16.09 Fair CLR 16 1 36% 77.77 0.0
02 10:55 W 15 G 31 16.09 Fair CLR 16 2 39% 77.77 0.0
02 10:35 W 17 G 31 16.09 Fair CLR 15 2 42% 77.77 0.0
02 10:15 W 15 G 35 16.09 Fair CLR 15 3 45% 77.75 0.0
02 09:55 W 15 G 26 16.09 Fair CLR 14 3 48% 77.75 0.0
02 09:35 W 17 G 26 16.09 Fair CLR 13 2 47% 77.77 0.0
02 09:15 W 13 16.09 Fair CLR 13 3 51% 77.75 0.0
02 08:55 W 7 G 28 16.09 Fair CLR 12 3 54% 77.75 0.0
02 08:35 W 17 G 30 16.09 Fair CLR 11 4 62% 77.72 0.0
02 08:15 W 20 16.09 Fair CLR 9 5 76% 6 77.72 0.0
02 07:55 W 17 G 26 16.09 Fair CLR 8 4 76% 6 77.7 0.0
02 07:35 W 20 G 33 16.09 Fair CLR 8 4 76% 5 77.67 0.0
02 07:15 W 24 G 33 16.09 Fair CLR 7 5 87% 4 77.65 0.0
02 06:55 W 28 G 37 16.09 Fair CLR 7 5 87% 3 77.62 0.0
02 06:35 W 28 G 37 16.09 Fair CLR 8 4 76% 4 77.6 0.0
02 06:15 W 30 16.09 Fair CLR 8 4 76% 4 77.6 0.0
02 05:55 W 26 16.09 Fair CLR 8 4 76% 5 77.62 0.0
02 05:35 W 28 G 33 16.09 Fair CLR 8 4 76% 4 77.62 0.0
02 05:15 W 28 G 37 16.09 Fair CLR 8 4 76% 4 77.62 0.0
02 04:35 W 28 G 41 16.09 Fair CLR 8 5 82% 4 77.62 0.0
02 04:15 W 28 16.09 Fair CLR 8 5 82% 4 77.62 0.0
02 03:55 W 30 G 39 16.09 Fair CLR 9 5 76% 6 77.62 0.0
02 03:35 W 24 G 31 16.09 Fair CLR 8 5 82% 5 77.65 0.0
02 03:15 W 19 16.09 Fair CLR 8 5 82% 5 77.65 0.0
02 02:55 W 22 G 31 16.09 Fair CLR 9 5 76% 6 77.67 0.0
02 02:35 W 17 16.09 Fair CLR 8 6 87% 6 77.67 0.0
02 02:15 W 17 16.09 Fair CLR 8 6 87% 6 77.7 0.0
02 01:55 W 15 16.09 Fair CLR 9 6 82% 7 77.7 0.0
02 01:35 W 17 16.09 Fair CLR 8 6 87% 6 77.7 0.0
02 01:15 W 15 16.09 Fair CLR 9 6 82% 7 77.72 0.0
02 00:55 W 13 16.09 Fair CLR 10 6 76% 8 77.72 0.0
02 00:35 W 15 16.09 Fair CLR 10 6 76% 8 77.72 0.0
02 00:15 W 15 16.09 Fair CLR 10 6 76% 8 77.72 0.0
01 23:55 W 17 16.09 Fair CLR 11 6 72% 77.72 0.0
01 23:35 W 22 16.09 Fair CLR 11 6 72% 77.75 0.0
01 23:15 SW 20 16.09 Fair CLR 11 6 72% 77.72 0.0
01 22:55 SW 20 16.09 Fair CLR 11 6 72% 77.72 0.0
01 22:35 W 20 16.09 Fair CLR 11 6 72% 77.72 0.0
01 22:15 W 15 16.09 Fair CLR 11 6 72% 77.75 0.0
01 21:55 W 15 16.09 Fair CLR 11 6 72% 77.75 0.0
01 21:35 W 17 16.09 Fair CLR 12 6 67% 77.72 0.0
01 21:15 W 17 16.09 Fair CLR 12 5 63% 77.72 0.0
01 20:55 W 15 16.09 Fair CLR 12 5 63% 77.7 0.0
01 20:35 W 11 16.09 Fair CLR 12 5 63% 77.7 0.0
01 20:15 W 13 16.09 Fair CLR 13 5 59% 77.65 0.0
01 19:55 SW 15 16.09 Fair CLR 13 5 59% 77.65 0.0
01 19:35 W 15 16.09 Fair CLR 14 4 51% 77.65 0.0
01 19:15 W 15 16.09 Fair CLR 15 5 51% 77.65 0.0
01 18:55 SW 13 16.09 Fair CLR 16 4 45% 77.62 0.0
01 18:35 SW 15 16.09 Fair CLR 16 5 48% 77.65 0.0
01 18:15 W 9 16.09 Partly Cloudy SCT120 16 5 48% 77.65 0.0
01 17:55 W 13 16.09 Partly Cloudy SCT120 16 5 48% 77.65 0.0
01 17:35 W 9 16.09 Fair CLR 17 5 45% 77.65 0.0
01 17:15 W 13 16.09 Partly Cloudy SCT120 16 5 48% 77.65 0.0
01 16:55 W 20 G 35 16.09 Partly Cloudy SCT120 16 5 48% 77.65 0.0
01 16:35 W 20 G 33 16.09 Partly Cloudy SCT120 16 5 48% 77.65 0.0
01 16:15 W 19 G 28 16.09 Fair CLR 15 6 55% 77.67 0.0
01 15:55 W 15 16.09 Partly Cloudy SCT049 SCT060 SCT070 13 6 63% 77.7 0.0
01 15:35 W 22 16.09 Mostly Cloudy SCT060 BKN070 BKN085 12 5 63% 77.72 0.0
01 15:15 W 28 G 37 16.09 Overcast SCT045 BKN050 OVC080 13 5 59% 77.72 0.0
01 14:55 W 9 16.09 Mostly Cloudy SCT045 BKN055 BKN090 16 5 48% 77.72 0.0
01 14:35 SW 19 G 28 16.09 Mostly Cloudy SCT045 BKN070 BKN090 18 5 43% 77.72 0.0
01 14:15 SW 20 G 31 16.09 Overcast SCT047 BKN060 OVC095 17 5 45% 77.75 0.0
01 13:55 SW 15 16.09 Mostly Cloudy SCT042 SCT049 BKN090 17 6 49% 77.77 0.0
01 13:35 W 13 16.09 Mostly Cloudy SCT040 SCT046 BKN090 17 5 45% 77.77 0.0
01 13:15 SW 17 G 30 16.09 Partly Cloudy SCT030 17 6 49% 77.8 0.0
01 12:55 SW 20 16.09 Partly Cloudy SCT030 16 7 55% 77.8 0.0
01 12:35 SW 19 G 26 16.09 Partly Cloudy SCT026 16 7 55% 77.8 0.0
01 12:15 W 13 16.09 Partly Cloudy SCT022 14 8 67% 77.8 0.0
01 11:55 W 15 16.09 Partly Cloudy SCT017 SCT022 13 7 67% 77.77 0.0
01 11:35 W 20 G 28 16.09 Partly Cloudy SCT017 12 8 77% 77.77 0.0
01 11:15 W 22 G 28 16.09 Partly Cloudy SCT110 12 8 77% 77.77 0.0
01 10:55 W 20 16.09 Mostly Cloudy BKN110 10 8 88% 8 77.77 0.0
01 10:35 W 22 16.09 Overcast SCT070 SCT090 OVC110 9 8 94% 6 77.75 0.0
01 10:15 W 20 16.09 Overcast SCT001 BKN065 OVC085 9 7 87% 6 77.77 0.0
01 09:35 W 15 G 28 11.27 Rain BKN036 BKN046 OVC070 8 7 93% 6 77.77 0.0 0.03
01 09:15 SW 19 11.27 Rain SCT034 BKN046 OVC080 8 7 93% 5 77.8 0.0
01 08:55 W 22 16.09 Overcast BKN036 BKN050 OVC065 8 7 93% 5 77.75 0.0 0.03
01 08:35 W 22 4.02 Drizzle SCT002 BKN028 OVC036 8 7 93% 5 77.72 0.0
01 08:15 W 22 0.24 Light Snow OVC002 7 7 100% 4 77.75 0.0
01 07:55 W 22 0.24 Light Snow OVC002 7 7 100% 4 77.75 0.0
01 07:35 W 20 0.24 Fog OVC002 7 7 100% 4 77.77 0.0
01 07:15 W 19 16.09 Overcast SCT036 BKN065 OVC090 7 7 100% 4 77.75 0.0
01 06:55 W 26 G 35 11.27 Light Drizzle SCT028 BKN055 OVC090 8 7 93% 5 77.7 0.0 0.03
01 06:35 W 26 G 37 11.27 Drizzle SCT060 BKN090 OVC110 8 7 93% 5 77.7 0.0
01 06:15 W 24 G 31 16.09 Partly Cloudy SCT037 SCT060 SCT075 8 7 93% 5 77.67 0.0
01 05:55 W 15 G 26 16.09 Partly Cloudy SCT065 SCT075 SCT120 8 6 87% 6 77.67 0.0 0.03
01 05:35 W 11 16.09 Partly Cloudy SCT034 SCT050 SCT120 8 6 87% 6 77.67 0.0 0.03
01 05:15 W 13 16.09 Drizzle SCT028 BKN036 BKN048 8 7 93% 6 77.7 0.0 0.03
01 04:55 W 17 16.09 Drizzle SCT035 SCT048 BKN060 8 6 87% 6 77.7 0.0
01 04:35 W 15 G 26 16.09 Fair CLR 9 6 82% 7 77.7 0.0
01 04:15 W 19 G 28 11.27 Rain SCT033 SCT042 SCT050 8 7 93% 5 77.67 0.0
01 03:55 W 11 16.09 Partly Cloudy SCT060 SCT080 SCT090 8 7 93% 6 77.7 0.0
01 03:35 W 17 16.09 Mostly Cloudy BKN060 BKN090 8 7 93% 6 77.7 0.0
01 03:15 W 17 16.09 Partly Cloudy SCT065 SCT090 SCT110 7 7 100% 4 77.67 0.0
01 02:55 W 19 16.09 Overcast SCT070 BKN090 OVC110 8 6 87% 5 77.67 0.0
01 02:35 SW 20 G 28 16.09 Overcast OVC100 8 6 87% 5 77.7 0.0
01 02:15 W 11 16.09 Drizzle SCT060 SCT075 OVC100 8 6 87% 6 77.75 0.0
01 01:55 W 17 16.09 Overcast SCT070 OVC110 9 6 82% 7 77.77 0.0
01 01:35 W 20 16.09 Mostly Cloudy BKN120 9 6 82% 6 77.75 0.0
01 01:15 W 17 16.09 Partly Cloudy SCT120 9 6 82% 7 77.75 0.0
01 00:55 W 19 16.09 Fair CLR 10 5 71% 8 77.77 0.0
01 00:35 W 20 16.09 Fair CLR 10 5 71% 8 77.75 0.0
01 00:15 W 20 16.09 Fair CLR 10 5 71% 8 77.75 0.0
31 23:55 W 20 16.09 Fair CLR 10 5 71% 8 77.75 0.0
31 23:35 W 19 16.09 Fair CLR 10 4 67% 8 77.75 0.0
31 23:15 W 19 16.09 Partly Cloudy SCT120 10 4 67% 8 77.75 0.0
31 22:55 W 15 16.09 Mostly Cloudy BKN120 10 5 71% 8 77.77 0.0
31 22:35 W 9 16.09 Mostly Cloudy BKN110 11 4 62% 77.77 0.0
31 22:15 SW 9 16.09 Mostly Cloudy SCT100 BKN120 10 5 71% 9 77.8 0.0
31 21:55 SW 9 16.09 Mostly Cloudy SCT050 SCT070 BKN120 11 3 58% 77.8 0.0
31 21:35 SW 15 16.09 Light Drizzle SCT048 SCT050 OVC070 11 3 58% 77.8 0.0
31 21:15 SW 24 G 37 16.09 Overcast SCT075 BKN080 OVC110 10 4 67% 7 77.77 0.0
31 20:55 SW 19 G 37 16.09 Overcast SCT042 SCT075 OVC110 10 5 71% 8 77.77 0.0
31 20:35 SW 20 G 39 16.09 Light Rain SCT025 BKN039 OVC070 9 6 82% 6 77.8 0.0
31 20:15 SW 50 G 65 8.05 Heavy Drizzle and Windy SCT027 SCT040 BKN050 10 7 82% 6 77.75 0.0
31 19:55 W 20 G 33 16.09 Mostly Cloudy SCT050 BKN080 11 6 72% 77.75 0.0
31 19:35 W 17 16.09 Fair CLR 12 6 67% 77.75 0.0
31 19:15 W 13 16.09 Partly Cloudy SCT070 SCT080 SCT110 14 6 59% 77.75 0.0
31 18:55 W 11 16.09 Mostly Cloudy BKN075 BKN080 15 5 51% 77.75 0.0
31 18:35 W 7 16.09 Mostly Cloudy BKN085 15 4 48% 77.72 0.0
Date Time (mdt) Wind (kph) Vis. (km) Weather Sky Cond. Air Dwpt Max. Min. Relative Humidity Wind Chill (°C) Heat Index (°C) altimeter (cm) sea level (mb) 1 hr 3 hr 6 hr
6 hour
Temperature (ºC) Pressure Precipitation (cm)